メインページ
METAR-TAF:

METAR-TAF

空港 :

チューク国際空港

Weno, ミクロネシア

緯度: 07-28N, 経度: 151-51E, 海抜: 3m

現時点の気象観測

当レポートは16分前の20:50(UTC)に作成
東/北東の風 6kt
気温 30°C
湿度 79%
気圧 1010 hPa
視程: 24.1km
高度1400ftの雲はほとんどない
高度29000ftの雲は散在している

METAR: PTKK 222050Z 07006KT 15SM FEW014 SCT290 30/26 A2983 RMK SLP105 8/101 T02960255 52014

時間: 07:06 (21:06 UTC)

予報

当レポートは3時間46分前の17:20(UTC)に作成
予報は22日の 18時(UTC)から 23日の 18時(UTC)まで有効
東/北東の風 8kt
視程: 10km
高度1400ftの雲はほとんどない
23日の 0300時(UTC)から
東/北東の風 8kt
視程: 10km
高度1400ftの雲はほとんどない
高度12000ftの雲は散在している
近辺でにわか雨

TAF: PTKK 221720Z 2218/2318 06008KT P6SM FEW014 FM230300 06008KT P6SM VCSH FEW014 SCT120

4,000以上の空港の気象観測と天気予報(METAR報とTAF報)

利用可能な観測所は地図上に黄色い丸と赤い丸で示す。

丸の上にカーソルを重ねると観測所名を参照できる。

次にクリックすると気象観測と天気予報を参照できる。

マップの切り替え:黒色「×」印の緑ボタンをクリックして拡大、「-」印の緑ボタンをクリックして縮小、緑色の三角印をクリックして隣りの地図に切り替え


METAR-TAF: